createdAt,value
2018-12-23T00:02:16.664Z,0.60
2018-12-23T00:04:44.441Z,0.78
2018-12-23T00:07:11.970Z,0.83
2018-12-23T00:09:39.517Z,0.58
2018-12-23T00:12:07.238Z,0.54
2018-12-23T00:14:34.791Z,0.53
2018-12-23T00:17:02.342Z,0.56
2018-12-23T00:19:30.193Z,0.93
2018-12-23T00:21:57.713Z,1.00
2018-12-23T00:24:25.269Z,0.73
2018-12-23T00:26:53.510Z,0.61
2018-12-23T00:29:20.603Z,0.90
2018-12-23T00:31:48.130Z,1.09
2018-12-23T00:34:15.873Z,1.28
2018-12-23T00:36:43.406Z,1.43
2018-12-23T00:39:10.973Z,1.44
2018-12-23T00:41:38.641Z,1.17
2018-12-23T00:44:06.178Z,1.21
2018-12-23T00:46:33.705Z,1.03
2018-12-23T00:49:01.398Z,0.87
2018-12-23T00:51:28.973Z,0.73
2018-12-23T00:53:56.500Z,0.93
2018-12-23T00:56:24.329Z,0.92
2018-12-23T00:58:51.913Z,0.78
2018-12-23T01:01:19.461Z,0.78
2018-12-23T01:03:47.381Z,0.86
2018-12-23T01:06:14.945Z,0.97
2018-12-23T01:08:42.524Z,1.05
2018-12-23T01:11:10.162Z,1.15
2018-12-23T01:13:37.728Z,1.16
2018-12-23T01:16:05.283Z,0.90
2018-12-23T01:18:32.846Z,0.75
2018-12-23T01:21:00.436Z,0.80
2018-12-23T01:23:28.007Z,0.70
2018-12-23T01:25:55.611Z,0.59
2018-12-23T01:28:23.144Z,0.56
2018-12-23T01:30:50.724Z,0.68
2018-12-23T01:33:18.508Z,0.76
2018-12-23T01:35:46.066Z,0.80
2018-12-23T01:38:13.610Z,0.89
2018-12-23T01:40:41.313Z,0.87
2018-12-23T01:43:08.880Z,0.95
2018-12-23T01:45:36.438Z,1.15
2018-12-23T01:48:04.169Z,1.11
2018-12-23T01:50:31.738Z,1.06
2018-12-23T01:52:59.295Z,0.84
2018-12-23T01:55:26.901Z,0.78
2018-12-23T01:57:54.441Z,0.82
2018-12-23T02:00:22.009Z,0.89
2018-12-23T02:02:49.909Z,0.91
2018-12-23T02:05:17.491Z,0.85
2018-12-23T02:07:45.023Z,0.83
2018-12-23T02:10:12.717Z,0.82
2018-12-23T02:12:40.264Z,0.75
2018-12-23T02:15:07.846Z,0.69
2018-12-23T02:17:35.596Z,0.68
2018-12-23T02:20:03.166Z,0.79
2018-12-23T02:22:30.732Z,0.92
2018-12-23T02:24:58.462Z,0.99
2018-12-23T02:27:26.016Z,1.23
2018-12-23T02:29:53.589Z,1.27
2018-12-23T02:32:21.220Z,1.23
2018-12-23T02:34:48.758Z,1.04
2018-12-23T02:37:16.281Z,0.93
2018-12-23T02:39:43.913Z,1.21
2018-12-23T02:42:11.470Z,1.28
2018-12-23T02:44:38.996Z,1.34
2018-12-23T02:47:06.609Z,1.75
2018-12-23T02:49:34.174Z,1.81
2018-12-23T02:52:01.705Z,1.73
2018-12-23T02:54:29.459Z,1.58
2018-12-23T02:56:56.998Z,1.41
2018-12-23T02:59:24.573Z,1.33
2018-12-23T03:01:52.312Z,1.20
2018-12-23T03:04:19.852Z,1.22
2018-12-23T03:06:47.446Z,1.38
2018-12-23T03:09:15.122Z,1.36
2018-12-23T03:11:42.726Z,1.22
2018-12-23T03:14:10.257Z,1.24
2018-12-23T03:16:37.925Z,1.46
2018-12-23T03:19:05.481Z,1.21
2018-12-23T03:21:33.051Z,1.03
2018-12-23T03:24:00.841Z,1.37
2018-12-23T03:26:28.388Z,1.24
2018-12-23T03:28:55.969Z,0.99
2018-12-23T03:31:23.702Z,0.94
2018-12-23T03:33:51.253Z,0.97
2018-12-23T03:36:18.801Z,0.99
2018-12-23T03:38:46.374Z,1.09
2018-12-23T03:41:13.968Z,0.96
2018-12-23T03:43:41.540Z,0.90
2018-12-23T03:46:09.220Z,0.92
2018-12-23T03:48:36.827Z,0.79
2018-12-23T03:51:04.401Z,0.89
2018-12-23T03:53:32.026Z,0.93
2018-12-23T03:55:59.600Z,0.89
2018-12-23T03:58:27.177Z,0.82
2018-12-23T04:00:54.841Z,1.05
2018-12-23T04:03:22.447Z,1.28
2018-12-23T04:05:49.970Z,1.50
2018-12-23T04:08:17.589Z,1.66
2018-12-23T04:10:45.171Z,1.86
2018-12-23T04:13:12.728Z,2.04
2018-12-23T04:15:40.549Z,2.13
2018-12-23T04:18:08.121Z,2.08
2018-12-23T04:20:35.686Z,2.22
2018-12-23T04:23:03.310Z,2.43
2018-12-23T04:25:30.866Z,2.64
2018-12-23T04:27:58.422Z,2.83
2018-12-23T04:30:26.010Z,3.06
2018-12-23T04:32:53.576Z,3.35
2018-12-23T04:35:21.110Z,3.84
2018-12-23T04:37:48.897Z,4.07
2018-12-23T04:40:16.453Z,4.31
2018-12-23T04:42:44.007Z,4.34
2018-12-23T04:45:11.692Z,4.36
2018-12-23T04:47:39.249Z,4.53
2018-12-23T04:50:06.875Z,4.53
2018-12-23T04:52:35.481Z,4.56
2018-12-23T04:55:03.059Z,4.47
2018-12-23T04:57:32.615Z,4.39
2018-12-23T05:00:00.525Z,4.39
2018-12-23T05:02:28.059Z,4.34
2018-12-23T05:04:55.612Z,4.25
2018-12-23T05:07:23.226Z,4.39
2018-12-23T05:09:50.739Z,4.49
2018-12-23T05:12:18.281Z,4.51
2018-12-23T05:14:46.073Z,4.62
2018-12-23T05:17:13.639Z,4.88
2018-12-23T05:19:41.210Z,4.97
2018-12-23T05:22:08.825Z,5.36
2018-12-23T05:24:36.377Z,5.63
2018-12-23T05:27:03.949Z,5.83
2018-12-23T05:29:31.841Z,5.96
2018-12-23T05:31:59.388Z,5.96
2018-12-23T05:34:26.940Z,5.94
2018-12-23T05:36:54.677Z,6.06
2018-12-23T05:39:22.290Z,5.95
2018-12-23T05:41:49.857Z,6.01
2018-12-23T05:44:17.480Z,5.85
2018-12-23T05:46:45.037Z,5.45
2018-12-23T05:49:12.573Z,5.16
2018-12-23T05:51:40.314Z,5.07
2018-12-23T05:54:07.853Z,4.98
2018-12-23T05:56:35.414Z,5.19
2018-12-23T05:59:02.976Z,5.34
2018-12-23T06:01:30.537Z,5.53
2018-12-23T06:03:58.088Z,5.80
2018-12-23T06:06:25.781Z,6.06
2018-12-23T06:08:53.338Z,6.42
2018-12-23T06:11:20.898Z,6.77
2018-12-23T06:13:48.490Z,6.95
2018-12-23T06:16:16.098Z,7.09
2018-12-23T06:18:43.693Z,7.22
2018-12-23T06:21:12.173Z,7.40
2018-12-23T06:23:39.710Z,7.37
2018-12-23T06:26:07.227Z,7.57
2018-12-23T06:28:34.808Z,7.65
2018-12-23T06:31:02.363Z,7.79
2018-12-23T06:33:29.917Z,7.88
2018-12-23T06:35:57.801Z,7.92
2018-12-23T06:38:25.350Z,8.08
2018-12-23T06:40:53.073Z,8.10
2018-12-23T06:43:21.566Z,8.27
2018-12-23T06:45:49.133Z,8.39
2018-12-23T06:48:16.715Z,8.59
2018-12-23T06:50:44.405Z,8.83
2018-12-23T06:53:11.975Z,9.06
2018-12-23T06:55:39.529Z,9.20
2018-12-23T06:58:07.281Z,9.30
2018-12-23T07:00:34.829Z,9.34
2018-12-23T07:03:02.365Z,9.52
2018-12-23T07:05:30.077Z,9.68
2018-12-23T07:07:57.633Z,9.78
2018-12-23T07:10:25.171Z,9.94
2018-12-23T07:15:57.848Z,9.87
2018-12-23T07:18:25.677Z,9.81
2018-12-23T07:20:55.277Z,9.69
2018-12-23T07:23:20.993Z,9.56
2018-12-23T07:25:48.754Z,9.69
2018-12-23T07:28:16.293Z,9.81
2018-12-23T07:30:43.838Z,9.83
2018-12-23T07:33:11.799Z,9.96
2018-12-23T07:35:39.414Z,10.10
2018-12-23T07:38:06.990Z,10.17
2018-12-23T07:40:34.614Z,10.27
2018-12-23T07:43:02.170Z,10.18
2018-12-23T07:45:29.728Z,10.41
2018-12-23T07:47:57.674Z,10.49
2018-12-23T07:50:25.487Z,10.74
2018-12-23T07:52:53.061Z,10.76
2018-12-23T07:55:20.749Z,10.86
2018-12-23T07:57:48.312Z,10.95
2018-12-23T08:00:15.865Z,10.91
2018-12-23T08:03:02.600Z,10.97
2018-12-23T08:05:30.229Z,11.20
2018-12-23T08:07:57.797Z,11.43
2018-12-23T08:10:25.611Z,11.56
2018-12-23T08:12:53.144Z,11.58
2018-12-23T08:15:20.705Z,11.63
2018-12-23T08:17:48.397Z,11.75
2018-12-23T08:20:15.967Z,11.93
2018-12-23T08:22:43.508Z,12.01
2018-12-23T08:25:11.286Z,12.14
2018-12-23T08:27:38.841Z,12.04
2018-12-23T08:30:06.417Z,12.21
2018-12-23T08:32:51.138Z,12.21
2018-12-23T08:35:18.661Z,12.15
2018-12-23T08:37:46.206Z,12.37
2018-12-23T08:40:14.045Z,12.35
2018-12-23T08:42:41.608Z,12.33
2018-12-23T08:45:09.146Z,12.46
2018-12-23T08:47:36.814Z,12.60
2018-12-23T08:50:04.429Z,12.75
2018-12-23T08:52:31.984Z,12.80
2018-12-23T08:54:59.677Z,12.78
2018-12-23T08:57:27.249Z,12.95
2018-12-23T08:59:54.815Z,13.10
2018-12-23T09:02:22.440Z,13.29
2018-12-23T09:04:50.063Z,13.22
2018-12-23T09:07:17.609Z,13.41
2018-12-23T09:09:45.440Z,13.52
2018-12-23T09:12:12.989Z,13.70
2018-12-23T09:14:40.552Z,13.69
2018-12-23T09:17:08.395Z,13.70
2018-12-23T09:19:35.963Z,13.82
2018-12-23T09:22:03.509Z,13.80
2018-12-23T09:24:31.206Z,13.87
2018-12-23T09:26:58.793Z,13.97
2018-12-23T09:29:26.383Z,13.88
2018-12-23T09:31:54.126Z,13.93
2018-12-23T09:34:21.697Z,14.13
2018-12-23T09:36:49.284Z,13.99
2018-12-23T09:39:17.389Z,14.11
2018-12-23T09:41:44.997Z,14.21
2018-12-23T09:44:12.597Z,14.29
2018-12-23T09:46:40.413Z,14.37
2018-12-23T09:49:07.974Z,14.36
2018-12-23T09:51:35.941Z,14.42
2018-12-23T09:54:03.870Z,14.29
2018-12-23T09:56:31.473Z,14.45
2018-12-23T09:58:59.045Z,14.58
2018-12-23T10:01:26.758Z,14.37
2018-12-23T10:03:54.306Z,14.44
2018-12-23T10:06:21.897Z,14.46
2018-12-23T10:08:49.533Z,14.41
2018-12-23T10:11:17.102Z,14.50
2018-12-23T10:13:44.674Z,14.53
2018-12-23T10:16:12.509Z,14.48
2018-12-23T10:18:40.089Z,14.43
2018-12-23T10:21:07.671Z,14.57
2018-12-23T10:23:35.596Z,14.59
2018-12-23T10:26:03.164Z,14.61
2018-12-23T10:28:30.708Z,14.61
2018-12-23T10:30:58.362Z,14.73
2018-12-23T10:33:25.949Z,14.84
2018-12-23T10:35:53.495Z,15.02
2018-12-23T10:38:21.100Z,15.11
2018-12-23T10:40:48.639Z,15.05
2018-12-23T10:43:16.217Z,15.05
2018-12-23T10:45:43.841Z,14.97
2018-12-23T10:48:11.465Z,14.97
2018-12-23T10:50:38.996Z,14.90
2018-12-23T10:53:06.722Z,15.08
2018-12-23T10:55:34.283Z,15.06
2018-12-23T10:58:02.742Z,15.40
2018-12-23T11:00:30.461Z,15.58
2018-12-23T11:02:58.030Z,15.80
2018-12-23T11:05:25.599Z,15.48
2018-12-23T11:07:53.372Z,15.55
2018-12-23T11:10:20.953Z,15.61
2018-12-23T11:12:56.481Z,15.61
2018-12-23T11:15:24.050Z,15.68
2018-12-23T11:17:51.585Z,15.69
2018-12-23T11:20:20.204Z,15.50
2018-12-23T11:22:47.800Z,15.45
2018-12-23T11:25:15.381Z,15.56
2018-12-23T11:27:43.033Z,15.54
2018-12-23T11:30:10.592Z,15.64
2018-12-23T11:32:38.157Z,15.54
2018-12-23T11:35:06.054Z,15.62
2018-12-23T11:37:33.717Z,15.61
2018-12-23T11:40:01.277Z,15.57
2018-12-23T11:42:29.245Z,15.48
2018-12-23T11:44:56.861Z,15.40
2018-12-23T11:47:24.409Z,15.47
2018-12-23T11:49:52.294Z,15.54
2018-12-23T11:52:19.837Z,15.52
2018-12-23T11:54:47.387Z,15.45
2018-12-23T11:57:15.404Z,15.43
2018-12-23T11:59:42.956Z,15.53
2018-12-23T12:02:15.202Z,15.52
2018-12-23T12:04:38.503Z,15.48
2018-12-23T12:07:06.041Z,15.55
2018-12-23T12:09:33.591Z,15.47
2018-12-23T12:12:01.490Z,15.42
2018-12-23T12:14:29.065Z,15.52
2018-12-23T12:16:56.629Z,15.32
2018-12-23T12:19:24.234Z,15.41
2018-12-23T12:21:51.831Z,15.54
2018-12-23T12:24:19.470Z,15.34
2018-12-23T12:26:47.061Z,15.31
2018-12-23T12:29:14.655Z,15.34
2018-12-23T12:31:42.201Z,15.50
2018-12-23T12:34:09.912Z,15.73
2018-12-23T12:36:37.464Z,15.65
2018-12-23T12:39:05.098Z,15.54
2018-12-23T12:41:32.809Z,15.43
2018-12-23T12:44:00.413Z,15.57
2018-12-23T12:46:27.982Z,15.63
2018-12-23T12:48:55.604Z,15.47
2018-12-23T12:51:23.282Z,15.29
2018-12-23T12:53:50.744Z,15.20
2018-12-23T12:56:18.679Z,15.22
2018-12-23T12:58:46.225Z,14.99
2018-12-23T13:01:13.791Z,15.05
2018-12-23T13:03:41.476Z,14.82
2018-12-23T13:06:09.017Z,14.62
2018-12-23T13:08:36.584Z,14.52
2018-12-23T13:11:04.426Z,14.66
2018-12-23T13:13:31.992Z,14.72
2018-12-23T13:15:59.588Z,14.45
2018-12-23T13:18:27.454Z,14.25
2018-12-23T13:20:55.037Z,13.97
2018-12-23T13:23:22.581Z,13.83
2018-12-23T13:25:50.239Z,14.05
2018-12-23T13:28:17.793Z,13.96
2018-12-23T13:30:45.351Z,13.73
2018-12-23T13:33:13.206Z,13.64
2018-12-23T13:35:40.756Z,13.59
2018-12-23T13:38:08.360Z,13.55
2018-12-23T13:44:00.708Z,13.50
2018-12-23T13:46:43.505Z,13.35
2018-12-23T13:49:18.621Z,13.27
2018-12-23T13:51:52.076Z,13.14
2018-12-23T13:54:33.445Z,13.06
2018-12-23T13:57:02.805Z,12.86
2018-12-23T13:59:46.141Z,12.80
2018-12-23T14:02:15.588Z,12.81
2018-12-23T14:04:46.582Z,12.80
2018-12-23T14:07:22.093Z,12.76
2018-12-23T14:09:55.611Z,12.85
2018-12-23T14:12:23.509Z,12.88
2018-12-23T14:14:51.064Z,12.90
2018-12-23T14:17:18.638Z,12.83
2018-12-23T14:19:46.295Z,12.80
2018-12-23T14:22:13.867Z,12.78
2018-12-23T14:24:41.461Z,12.66
2018-12-23T14:27:09.199Z,12.54
2018-12-23T14:29:36.759Z,12.42
2018-12-23T14:32:04.369Z,12.39
2018-12-23T14:34:32.230Z,12.29
2018-12-23T14:36:59.795Z,12.17
2018-12-23T14:39:28.698Z,12.05
2018-12-23T14:41:55.166Z,12.00
2018-12-23T14:44:22.735Z,11.92
2018-12-23T14:46:50.319Z,11.90
2018-12-23T14:49:18.012Z,11.87
2018-12-23T14:51:45.532Z,11.87
2018-12-23T14:54:13.093Z,11.96
2018-12-23T14:56:40.746Z,11.93
2018-12-23T14:59:08.339Z,11.88
2018-12-23T15:01:35.877Z,11.85
2018-12-23T15:04:04.696Z,11.75
2018-12-23T15:06:32.273Z,11.73
2018-12-23T15:08:59.836Z,11.63
2018-12-23T15:11:27.569Z,11.59
2018-12-23T15:13:55.163Z,11.63
2018-12-23T15:16:22.754Z,11.70
2018-12-23T15:18:50.349Z,11.60
2018-12-23T15:21:17.938Z,11.59
2018-12-23T15:23:45.492Z,11.51
2018-12-23T15:26:13.188Z,11.50
2018-12-23T15:28:40.781Z,11.49
2018-12-23T15:31:08.367Z,11.56
2018-12-23T15:33:36.165Z,11.48
2018-12-23T15:36:03.720Z,11.45
2018-12-23T15:38:31.309Z,11.27
2018-12-23T15:40:59.102Z,11.28
2018-12-23T15:43:26.669Z,11.21
2018-12-23T15:45:54.281Z,11.15
2018-12-23T15:48:21.873Z,11.08
2018-12-23T15:50:49.444Z,10.93
2018-12-23T15:53:17.023Z,10.76
2018-12-23T15:55:44.757Z,10.61
2018-12-23T15:58:12.313Z,10.36
2018-12-23T16:00:39.872Z,10.14
2018-12-23T16:03:08.463Z,10.14
2018-12-23T16:05:36.043Z,10.16
2018-12-23T16:08:03.615Z,10.06
2018-12-23T16:10:31.560Z,10.05
2018-12-23T16:12:59.127Z,9.99
2018-12-23T16:15:26.766Z,9.86
2018-12-23T16:17:55.406Z,9.79
2018-12-23T16:20:22.986Z,9.80
2018-12-23T16:22:51.566Z,9.75
2018-12-23T16:25:19.538Z,9.65
2018-12-23T16:27:47.138Z,9.62
2018-12-23T16:30:14.692Z,9.54
2018-12-23T16:32:42.521Z,9.48
2018-12-23T16:35:10.077Z,9.34
2018-12-23T16:37:37.656Z,9.35
2018-12-23T16:40:05.403Z,9.34
2018-12-23T16:42:40.674Z,9.24
2018-12-23T16:45:08.492Z,9.21
2018-12-23T16:47:36.065Z,9.11
2018-12-23T16:50:03.637Z,8.98
2018-12-23T16:52:31.630Z,8.94
2018-12-23T16:54:59.185Z,8.90
2018-12-23T16:57:26.785Z,8.75
2018-12-23T16:59:54.509Z,8.63
2018-12-23T17:02:22.068Z,8.63
2018-12-23T17:04:49.639Z,8.71
2018-12-23T17:07:17.361Z,8.78
2018-12-23T17:09:44.920Z,8.70
2018-12-23T17:12:12.481Z,8.68
2018-12-23T17:14:40.074Z,8.61
2018-12-23T17:17:07.645Z,8.59
2018-12-23T17:19:35.195Z,8.52
2018-12-23T17:22:02.830Z,8.55
2018-12-23T17:24:30.393Z,8.51
2018-12-23T17:26:57.982Z,8.42
2018-12-23T17:29:25.591Z,8.40
2018-12-23T17:31:53.125Z,8.47
2018-12-23T17:34:20.694Z,8.42
2018-12-23T17:36:48.321Z,8.40
2018-12-23T17:39:15.874Z,8.32
2018-12-23T17:41:43.485Z,8.32
2018-12-23T17:44:11.082Z,8.31
2018-12-23T17:46:38.762Z,8.26
2018-12-23T17:49:06.304Z,8.37
2018-12-23T17:51:33.984Z,8.25
2018-12-23T17:54:01.595Z,8.09
2018-12-23T17:56:30.009Z,8.10
2018-12-23T17:58:58.010Z,7.98
2018-12-23T18:01:48.307Z,7.94
2018-12-23T18:04:16.238Z,7.96
2018-12-23T18:06:43.859Z,7.95
2018-12-23T18:09:11.418Z,7.85
2018-12-23T18:11:39.176Z,7.89
2018-12-23T18:14:06.758Z,7.77
2018-12-23T18:16:34.987Z,7.66
2018-12-23T18:19:02.938Z,7.70
2018-12-23T18:21:30.495Z,7.80
2018-12-23T18:23:58.093Z,7.83
2018-12-23T18:26:25.816Z,7.77
2018-12-23T18:28:53.388Z,7.88
2018-12-23T18:31:20.958Z,7.86
2018-12-23T18:33:48.564Z,8.09
2018-12-23T18:36:16.147Z,7.97
2018-12-23T18:38:43.722Z,7.94
2018-12-23T18:41:11.431Z,7.97
2018-12-23T18:43:39.075Z,7.92
2018-12-23T18:46:06.659Z,8.02
2018-12-23T18:48:34.328Z,7.93
2018-12-23T18:51:01.925Z,7.95
2018-12-23T18:53:29.483Z,7.89
2018-12-23T18:55:57.261Z,7.91
2018-12-23T18:58:24.834Z,7.91
2018-12-23T19:00:52.437Z,8.09
2018-12-23T19:03:20.336Z,8.12
2018-12-23T19:05:47.910Z,8.07
2018-12-23T19:08:15.499Z,8.07
2018-12-23T19:10:43.547Z,8.08
2018-12-23T19:13:12.597Z,8.13
2018-12-23T19:15:45.855Z,8.06
2018-12-23T19:18:29.038Z,8.02
2018-12-23T19:21:17.593Z,7.92
2018-12-23T19:24:05.657Z,7.68
2018-12-23T19:30:07.066Z,7.64
2018-12-23T19:32:46.231Z,7.62
2018-12-23T19:35:34.390Z,7.54
2018-12-23T19:38:09.982Z,7.45
2018-12-23T19:40:50.215Z,7.34
2018-12-23T19:43:10.970Z,7.22
2018-12-23T19:48:57.800Z,6.96
2018-12-23T19:51:34.931Z,6.94
2018-12-23T19:54:28.406Z,6.82
2018-12-23T19:57:03.514Z,6.68
2018-12-23T19:59:41.979Z,6.42
2018-12-23T20:02:18.188Z,6.23
2018-12-23T20:04:49.230Z,6.09
2018-12-23T20:07:18.794Z,6.14
2018-12-23T20:09:48.817Z,6.35
2018-12-23T20:12:19.350Z,6.48
2018-12-23T20:15:03.778Z,6.44
2018-12-23T20:17:38.280Z,6.17
2018-12-23T20:20:15.458Z,6.05
2018-12-23T20:22:51.725Z,6.13
2018-12-23T20:28:24.031Z,5.83
2018-12-23T20:30:55.206Z,5.74
2018-12-23T20:33:40.327Z,5.76
2018-12-23T20:36:29.318Z,5.94
2018-12-23T20:39:08.653Z,5.90
2018-12-23T20:41:40.021Z,6.29
2018-12-23T20:44:08.870Z,6.30
2018-12-23T20:46:40.290Z,6.38
2018-12-23T20:52:27.308Z,7.05
2018-12-23T20:58:03.992Z,7.66
2018-12-23T21:00:53.248Z,7.84
2018-12-23T21:06:42.655Z,7.48
2018-12-23T21:09:18.822Z,7.22
2018-12-23T21:11:53.332Z,6.94
2018-12-23T21:17:38.581Z,7.06
2018-12-23T21:23:40.030Z,6.86
2018-12-23T21:26:11.117Z,6.72
2018-12-23T21:31:42.446Z,6.53
2018-12-23T21:37:50.688Z,6.33
2018-12-23T21:40:23.583Z,6.20
2018-12-23T21:42:57.677Z,6.10
2018-12-23T21:45:28.160Z,5.92
2018-12-23T21:48:13.155Z,5.75
2018-12-23T21:50:47.305Z,5.64
2018-12-23T21:53:18.648Z,5.44
2018-12-23T21:56:02.035Z,5.36
2018-12-23T22:01:28.820Z,5.17
2018-12-23T22:04:11.293Z,5.16
2018-12-23T22:10:04.969Z,4.98
2018-12-23T22:15:31.619Z,4.87
2018-12-23T22:17:59.324Z,4.99
2018-12-23T22:20:26.893Z,4.93
2018-12-23T22:22:54.442Z,5.01
2018-12-23T22:25:22.379Z,5.34
2018-12-23T22:27:49.927Z,5.37
2018-12-23T22:30:17.494Z,5.50
2018-12-23T22:32:45.307Z,5.39
2018-12-23T22:35:12.857Z,5.43
2018-12-23T22:37:40.401Z,5.59
2018-12-23T22:40:08.106Z,5.37
2018-12-23T22:42:38.774Z,5.20
2018-12-23T22:45:06.362Z,5.26
2018-12-23T22:47:34.191Z,5.14
2018-12-23T22:50:01.750Z,4.98
2018-12-23T22:52:29.378Z,4.64
2018-12-23T22:54:57.057Z,4.40
2018-12-23T22:57:24.604Z,4.19
2018-12-23T22:59:52.946Z,4.18
2018-12-23T23:02:20.874Z,4.14
2018-12-23T23:04:48.441Z,3.99
2018-12-23T23:07:15.995Z,4.25
2018-12-23T23:09:43.665Z,4.49
2018-12-23T23:12:11.198Z,5.07
2018-12-23T23:14:38.778Z,5.41
2018-12-23T23:17:06.731Z,5.55
2018-12-23T23:19:34.295Z,5.52
2018-12-23T23:22:01.866Z,5.73
2018-12-23T23:24:29.765Z,5.88
2018-12-23T23:26:57.338Z,5.75
2018-12-23T23:29:24.970Z,5.63
2018-12-23T23:31:52.920Z,5.57
2018-12-23T23:34:20.506Z,5.34
2018-12-23T23:36:48.044Z,5.08
2018-12-23T23:39:16.008Z,5.01
2018-12-23T23:41:43.617Z,5.35
2018-12-23T23:44:11.165Z,5.47
2018-12-23T23:46:38.892Z,5.33
2018-12-23T23:49:06.444Z,5.17
2018-12-23T23:51:34.019Z,4.94
2018-12-23T23:54:01.735Z,4.82
2018-12-23T23:56:29.295Z,4.73
2018-12-23T23:58:56.838Z,4.83
